sensor_id;sensor_type;location;lat;lon;timestamp;P1;durP1;ratioP1;P2;durP2;ratioP2
50219;SDS011;36110;51.536;7.562;2024-03-08T00:01:52;21.08;;;15.27;;
50219;SDS011;36110;51.536;7.562;2024-03-08T00:04:18;10.77;;;8.52;;
50219;SDS011;36110;51.536;7.562;2024-03-08T00:06:43;30.40;;;23.52;;
50219;SDS011;36110;51.536;7.562;2024-03-08T00:09:11;31.48;;;22.50;;
50219;SDS011;36110;51.536;7.562;2024-03-08T00:11:39;32.50;;;22.70;;
50219;SDS011;36110;51.536;7.562;2024-03-08T00:14:04;34.33;;;25.52;;
50219;SDS011;36110;51.536;7.562;2024-03-08T00:16:33;36.13;;;26.30;;
50219;SDS011;36110;51.536;7.562;2024-03-08T00:18:59;28.55;;;20.75;;
50219;SDS011;36110;51.536;7.562;2024-03-08T00:21:24;26.73;;;20.38;;
50219;SDS011;36110;51.536;7.562;2024-03-08T00:23:51;27.88;;;21.40;;
50219;SDS011;36110;51.536;7.562;2024-03-08T00:26:19;12.95;;;9.93;;
50219;SDS011;36110;51.536;7.562;2024-03-08T00:28:44;36.42;;;27.20;;
50219;SDS011;36110;51.536;7.562;2024-03-08T00:31:10;28.77;;;22.58;;
50219;SDS011;36110;51.536;7.562;2024-03-08T00:33:35;28.42;;;21.05;;
50219;SDS011;36110;51.536;7.562;2024-03-08T00:36:01;33.22;;;25.20;;
50219;SDS011;36110;51.536;7.562;2024-03-08T00:38:27;31.42;;;20.88;;
50219;SDS011;36110;51.536;7.562;2024-03-08T00:40:52;30.92;;;23.23;;
50219;SDS011;36110;51.536;7.562;2024-03-08T00:43:18;34.67;;;24.40;;
50219;SDS011;36110;51.536;7.562;2024-03-08T00:45:43;23.98;;;16.75;;
50219;SDS011;36110;51.536;7.562;2024-03-08T00:48:09;24.83;;;19.30;;
50219;SDS011;36110;51.536;7.562;2024-03-08T00:50:35;33.45;;;25.15;;
50219;SDS011;36110;51.536;7.562;2024-03-08T00:53:01;35.60;;;25.95;;
50219;SDS011;36110;51.536;7.562;2024-03-08T00:55:27;36.35;;;26.90;;
50219;SDS011;36110;51.536;7.562;2024-03-08T00:57:52;34.50;;;25.33;;
50219;SDS011;36110;51.536;7.562;2024-03-08T01:00:18;38.40;;;27.85;;
50219;SDS011;36110;51.536;7.562;2024-03-08T01:02:46;24.48;;;17.08;;
50219;SDS011;36110;51.536;7.562;2024-03-08T01:05:13;37.42;;;27.42;;
50219;SDS011;36110;51.536;7.562;2024-03-08T01:07:38;37.85;;;26.38;;
50219;SDS011;36110;51.536;7.562;2024-03-08T01:10:04;32.22;;;22.48;;
50219;SDS011;36110;51.536;7.562;2024-03-08T01:12:34;37.63;;;27.10;;
50219;SDS011;36110;51.536;7.562;2024-03-08T01:14:59;38.67;;;28.92;;
50219;SDS011;36110;51.536;7.562;2024-03-08T01:17:25;27.58;;;20.73;;
50219;SDS011;36110;51.536;7.562;2024-03-08T01:19:51;41.20;;;30.00;;
50219;SDS011;36110;51.536;7.562;2024-03-08T01:22:16;20.20;;;15.40;;
50219;SDS011;36110;51.536;7.562;2024-03-08T01:24:41;28.00;;;19.90;;
50219;SDS011;36110;51.536;7.562;2024-03-08T01:27:07;35.70;;;25.38;;
50219;SDS011;36110;51.536;7.562;2024-03-08T01:29:34;42.65;;;28.58;;
50219;SDS011;36110;51.536;7.562;2024-03-08T01:31:59;32.75;;;22.83;;
50219;SDS011;36110;51.536;7.562;2024-03-08T01:34:26;37.08;;;27.38;;
50219;SDS011;36110;51.536;7.562;2024-03-08T01:36:53;30.15;;;22.33;;
50219;SDS011;36110;51.536;7.562;2024-03-08T01:39:20;12.55;;;9.40;;
50219;SDS011;36110;51.536;7.562;2024-03-08T01:41:47;27.60;;;18.50;;
50219;SDS011;36110;51.536;7.562;2024-03-08T01:44:12;26.60;;;18.23;;
50219;SDS011;36110;51.536;7.562;2024-03-08T01:46:42;18.73;;;14.23;;
50219;SDS011;36110;51.536;7.562;2024-03-08T01:49:09;13.77;;;10.52;;
50219;SDS011;36110;51.536;7.562;2024-03-08T01:51:35;31.45;;;23.55;;
50219;SDS011;36110;51.536;7.562;2024-03-08T01:54:00;41.58;;;27.73;;
50219;SDS011;36110;51.536;7.562;2024-03-08T01:56:27;38.83;;;27.30;;
50219;SDS011;36110;51.536;7.562;2024-03-08T01:58:52;12.60;;;10.57;;
50219;SDS011;36110;51.536;7.562;2024-03-08T02:01:17;27.85;;;20.10;;
50219;SDS011;36110;51.536;7.562;2024-03-08T02:03:44;39.65;;;26.95;;
50219;SDS011;36110;51.536;7.562;2024-03-08T02:06:11;12.35;;;9.80;;
50219;SDS011;36110;51.536;7.562;2024-03-08T02:08:38;39.33;;;27.23;;
50219;SDS011;36110;51.536;7.562;2024-03-08T02:11:03;26.75;;;18.42;;
50219;SDS011;36110;51.536;7.562;2024-03-08T02:13:30;27.90;;;20.83;;
50219;SDS011;36110;51.536;7.562;2024-03-08T02:15:56;24.55;;;18.35;;
50219;SDS011;36110;51.536;7.562;2024-03-08T02:18:24;19.52;;;14.23;;
50219;SDS011;36110;51.536;7.562;2024-03-08T02:20:50;18.38;;;13.50;;
50219;SDS011;36110;51.536;7.562;2024-03-08T02:23:19;22.73;;;16.10;;
50219;SDS011;36110;51.536;7.562;2024-03-08T02:25:45;25.05;;;18.25;;
50219;SDS011;36110;51.536;7.562;2024-03-08T02:28:11;16.58;;;12.55;;
50219;SDS011;36110;51.536;7.562;2024-03-08T02:30:37;15.95;;;12.40;;
50219;SDS011;36110;51.536;7.562;2024-03-08T02:33:03;33.85;;;24.45;;
50219;SDS011;36110;51.536;7.562;2024-03-08T02:35:29;34.08;;;21.38;;
50219;SDS011;36110;51.536;7.562;2024-03-08T02:37:55;35.15;;;23.13;;
50219;SDS011;36110;51.536;7.562;2024-03-08T02:40:20;33.30;;;23.67;;
50219;SDS011;36110;51.536;7.562;2024-03-08T02:42:46;39.78;;;27.38;;
50219;SDS011;36110;51.536;7.562;2024-03-08T02:45:12;39.33;;;28.52;;
50219;SDS011;36110;51.536;7.562;2024-03-08T02:47:38;31.42;;;22.38;;
50219;SDS011;36110;51.536;7.562;2024-03-08T02:50:04;36.08;;;25.73;;
50219;SDS011;36110;51.536;7.562;2024-03-08T02:52:33;42.05;;;29.50;;
50219;SDS011;36110;51.536;7.562;2024-03-08T02:55:01;39.10;;;25.70;;
50219;SDS011;36110;51.536;7.562;2024-03-08T02:57:27;37.67;;;27.35;;
50219;SDS011;36110;51.536;7.562;2024-03-08T02:59:53;40.22;;;28.02;;
50219;SDS011;36110;51.536;7.562;2024-03-08T03:02:18;27.33;;;21.75;;
50219;SDS011;36110;51.536;7.562;2024-03-08T03:04:44;37.72;;;27.30;;
50219;SDS011;36110;51.536;7.562;2024-03-08T03:07:09;43.67;;;29.63;;
50219;SDS011;36110;51.536;7.562;2024-03-08T03:09:36;42.33;;;29.80;;
50219;SDS011;36110;51.536;7.562;2024-03-08T03:12:01;24.38;;;16.58;;
50219;SDS011;36110;51.536;7.562;2024-03-08T03:14:27;37.03;;;25.10;;
50219;SDS011;36110;51.536;7.562;2024-03-08T03:16:53;45.97;;;30.15;;
50219;SDS011;36110;51.536;7.562;2024-03-08T03:19:19;44.03;;;29.48;;
50219;SDS011;36110;51.536;7.562;2024-03-08T03:21:45;18.13;;;12.35;;
50219;SDS011;36110;51.536;7.562;2024-03-08T03:24:11;44.65;;;30.02;;
50219;SDS011;36110;51.536;7.562;2024-03-08T03:26:37;31.42;;;22.73;;
50219;SDS011;36110;51.536;7.562;2024-03-08T03:29:06;42.30;;;28.92;;
50219;SDS011;36110;51.536;7.562;2024-03-08T03:31:33;25.45;;;19.05;;
50219;SDS011;36110;51.536;7.562;2024-03-08T03:33:59;46.40;;;32.25;;
50219;SDS011;36110;51.536;7.562;2024-03-08T03:36:27;42.20;;;29.10;;
50219;SDS011;36110;51.536;7.562;2024-03-08T03:38:55;38.55;;;26.48;;
50219;SDS011;36110;51.536;7.562;2024-03-08T03:41:34;32.90;;;23.42;;
50219;SDS011;36110;51.536;7.562;2024-03-08T03:43:59;47.03;;;31.52;;
50219;SDS011;36110;51.536;7.562;2024-03-08T03:46:25;29.77;;;21.52;;
50219;SDS011;36110;51.536;7.562;2024-03-08T03:48:52;36.03;;;23.40;;
50219;SDS011;36110;51.536;7.562;2024-03-08T03:51:23;28.65;;;19.83;;
50219;SDS011;36110;51.536;7.562;2024-03-08T03:53:49;42.25;;;29.95;;
50219;SDS011;36110;51.536;7.562;2024-03-08T03:56:15;45.25;;;29.65;;
50219;SDS011;36110;51.536;7.562;2024-03-08T03:58:40;49.80;;;31.40;;
50219;SDS011;36110;51.536;7.562;2024-03-08T04:01:05;31.25;;;22.98;;
50219;SDS011;36110;51.536;7.562;2024-03-08T04:03:31;48.42;;;31.92;;
50219;SDS011;36110;51.536;7.562;2024-03-08T04:05:56;33.08;;;19.80;;
50219;SDS011;36110;51.536;7.562;2024-03-08T04:08:22;32.28;;;21.92;;
50219;SDS011;36110;51.536;7.562;2024-03-08T04:10:49;14.80;;;11.15;;
50219;SDS011;36110;51.536;7.562;2024-03-08T04:13:14;24.10;;;17.08;;
50219;SDS011;36110;51.536;7.562;2024-03-08T04:15:40;17.88;;;12.70;;
50219;SDS011;36110;51.536;7.562;2024-03-08T04:18:06;43.90;;;30.80;;
50219;SDS011;36110;51.536;7.562;2024-03-08T04:20:32;47.30;;;29.30;;
50219;SDS011;36110;51.536;7.562;2024-03-08T04:22:57;44.38;;;31.17;;
50219;SDS011;36110;51.536;7.562;2024-03-08T04:25:23;45.30;;;31.55;;
50219;SDS011;36110;51.536;7.562;2024-03-08T04:27:48;12.60;;;8.98;;
50219;SDS011;36110;51.536;7.562;2024-03-08T04:30:14;45.15;;;30.17;;
50219;SDS011;36110;51.536;7.562;2024-03-08T04:32:40;35.80;;;23.67;;
50219;SDS011;36110;51.536;7.562;2024-03-08T04:35:06;23.85;;;17.48;;
50219;SDS011;36110;51.536;7.562;2024-03-08T04:37:33;42.70;;;28.23;;
50219;SDS011;36110;51.536;7.562;2024-03-08T04:39:59;39.63;;;28.27;;
50219;SDS011;36110;51.536;7.562;2024-03-08T04:42:24;47.63;;;30.13;;
50219;SDS011;36110;51.536;7.562;2024-03-08T04:44:51;42.38;;;27.73;;
50219;SDS011;36110;51.536;7.562;2024-03-08T04:47:18;14.82;;;10.30;;
50219;SDS011;36110;51.536;7.562;2024-03-08T04:49:44;46.65;;;30.60;;
50219;SDS011;36110;51.536;7.562;2024-03-08T04:52:09;25.35;;;17.58;;
50219;SDS011;36110;51.536;7.562;2024-03-08T04:54:34;30.45;;;19.88;;
50219;SDS011;36110;51.536;7.562;2024-03-08T04:57:00;21.73;;;15.23;;
50219;SDS011;36110;51.536;7.562;2024-03-08T04:59:26;44.47;;;30.98;;
50219;SDS011;36110;51.536;7.562;2024-03-08T05:01:52;46.38;;;31.25;;
50219;SDS011;36110;51.536;7.562;2024-03-08T05:04:18;49.95;;;33.50;;
50219;SDS011;36110;51.536;7.562;2024-03-08T05:06:43;49.05;;;33.10;;
50219;SDS011;36110;51.536;7.562;2024-03-08T05:09:08;50.47;;;32.92;;
50219;SDS011;36110;51.536;7.562;2024-03-08T05:11:43;32.15;;;21.15;;
50219;SDS011;36110;51.536;7.562;2024-03-08T05:14:09;45.67;;;28.67;;
50219;SDS011;36110;51.536;7.562;2024-03-08T05:16:35;35.22;;;24.02;;
50219;SDS011;36110;51.536;7.562;2024-03-08T05:19:00;50.30;;;31.85;;
50219;SDS011;36110;51.536;7.562;2024-03-08T05:21:26;19.13;;;14.88;;
50219;SDS011;36110;51.536;7.562;2024-03-08T05:23:51;46.67;;;29.33;;
50219;SDS011;36110;51.536;7.562;2024-03-08T05:26:17;47.67;;;31.73;;
50219;SDS011;36110;51.536;7.562;2024-03-08T05:28:42;24.73;;;15.82;;
50219;SDS011;36110;51.536;7.562;2024-03-08T05:31:07;50.95;;;33.22;;
50219;SDS011;36110;51.536;7.562;2024-03-08T05:33:33;36.53;;;25.10;;
50219;SDS011;36110;51.536;7.562;2024-03-08T05:36:02;49.85;;;31.45;;
50219;SDS011;36110;51.536;7.562;2024-03-08T05:38:27;52.55;;;33.78;;
50219;SDS011;36110;51.536;7.562;2024-03-08T05:40:53;13.10;;;10.40;;
50219;SDS011;36110;51.536;7.562;2024-03-08T05:43:19;40.55;;;27.38;;
50219;SDS011;36110;51.536;7.562;2024-03-08T05:45:45;37.90;;;26.98;;
50219;SDS011;36110;51.536;7.562;2024-03-08T05:48:11;53.60;;;35.80;;
50219;SDS011;36110;51.536;7.562;2024-03-08T05:50:39;40.08;;;26.80;;
50219;SDS011;36110;51.536;7.562;2024-03-08T05:53:05;48.97;;;33.20;;
50219;SDS011;36110;51.536;7.562;2024-03-08T05:55:33;57.72;;;36.10;;
50219;SDS011;36110;51.536;7.562;2024-03-08T05:58:01;56.08;;;32.63;;
50219;SDS011;36110;51.536;7.562;2024-03-08T06:00:27;23.10;;;15.52;;
50219;SDS011;36110;51.536;7.562;2024-03-08T06:02:52;55.92;;;34.22;;
50219;SDS011;36110;51.536;7.562;2024-03-08T06:05:17;55.25;;;36.03;;
50219;SDS011;36110;51.536;7.562;2024-03-08T06:07:43;51.65;;;31.65;;
50219;SDS011;36110;51.536;7.562;2024-03-08T06:10:09;23.38;;;15.60;;
50219;SDS011;36110;51.536;7.562;2024-03-08T06:12:35;62.63;;;37.42;;
50219;SDS011;36110;51.536;7.562;2024-03-08T06:15:05;55.40;;;34.17;;
50219;SDS011;36110;51.536;7.562;2024-03-08T06:17:31;48.92;;;31.58;;
50219;SDS011;36110;51.536;7.562;2024-03-08T06:19:57;63.85;;;38.65;;
50219;SDS011;36110;51.536;7.562;2024-03-08T06:22:22;56.90;;;37.33;;
50219;SDS011;36110;51.536;7.562;2024-03-08T06:24:47;57.88;;;36.45;;
50219;SDS011;36110;51.536;7.562;2024-03-08T06:27:13;59.28;;;36.42;;
50219;SDS011;36110;51.536;7.562;2024-03-08T06:29:38;56.05;;;36.05;;
50219;SDS011;36110;51.536;7.562;2024-03-08T06:32:04;57.03;;;36.63;;
50219;SDS011;36110;51.536;7.562;2024-03-08T06:34:32;59.05;;;36.67;;
50219;SDS011;36110;51.536;7.562;2024-03-08T06:36:59;56.78;;;36.28;;
50219;SDS011;36110;51.536;7.562;2024-03-08T06:39:26;60.63;;;38.20;;
50219;SDS011;36110;51.536;7.562;2024-03-08T06:41:51;63.75;;;38.25;;
50219;SDS011;36110;51.536;7.562;2024-03-08T06:44:16;66.05;;;39.95;;
50219;SDS011;36110;51.536;7.562;2024-03-08T06:46:42;41.67;;;27.58;;
50219;SDS011;36110;51.536;7.562;2024-03-08T06:49:07;62.47;;;38.50;;
50219;SDS011;36110;51.536;7.562;2024-03-08T06:51:34;57.25;;;36.17;;
50219;SDS011;36110;51.536;7.562;2024-03-08T06:54:00;55.55;;;34.92;;
50219;SDS011;36110;51.536;7.562;2024-03-08T06:56:25;54.25;;;34.78;;
50219;SDS011;36110;51.536;7.562;2024-03-08T06:58:51;52.15;;;34.25;;
50219;SDS011;36110;51.536;7.562;2024-03-08T07:01:17;54.65;;;35.13;;
50219;SDS011;36110;51.536;7.562;2024-03-08T07:03:42;62.20;;;34.78;;
50219;SDS011;36110;51.536;7.562;2024-03-08T07:06:10;53.05;;;34.08;;
50219;SDS011;36110;51.536;7.562;2024-03-08T07:08:35;56.38;;;35.22;;
50219;SDS011;36110;51.536;7.562;2024-03-08T07:11:01;59.15;;;34.15;;
50219;SDS011;36110;51.536;7.562;2024-03-08T07:13:26;51.25;;;31.52;;
50219;SDS011;36110;51.536;7.562;2024-03-08T07:15:55;53.50;;;33.55;;
50219;SDS011;36110;51.536;7.562;2024-03-08T07:18:20;52.05;;;33.03;;
50219;SDS011;36110;51.536;7.562;2024-03-08T07:20:47;51.15;;;34.22;;
50219;SDS011;36110;51.536;7.562;2024-03-08T07:23:12;51.85;;;32.92;;
50219;SDS011;36110;51.536;7.562;2024-03-08T07:25:59;52.35;;;34.00;;
50219;SDS011;36110;51.536;7.562;2024-03-08T07:28:25;53.67;;;34.50;;
50219;SDS011;36110;51.536;7.562;2024-03-08T07:30:52;52.85;;;32.92;;
50219;SDS011;36110;51.536;7.562;2024-03-08T07:33:26;48.90;;;30.67;;
50219;SDS011;36110;51.536;7.562;2024-03-08T07:35:52;51.25;;;33.28;;
50219;SDS011;36110;51.536;7.562;2024-03-08T07:38:17;49.55;;;32.70;;
50219;SDS011;36110;51.536;7.562;2024-03-08T07:40:46;47.25;;;31.25;;
50219;SDS011;36110;51.536;7.562;2024-03-08T07:43:13;45.20;;;29.85;;
50219;SDS011;36110;51.536;7.562;2024-03-08T07:45:38;49.78;;;32.20;;
50219;SDS011;36110;51.536;7.562;2024-03-08T07:48:04;49.42;;;32.90;;
50219;SDS011;36110;51.536;7.562;2024-03-08T07:50:35;45.35;;;29.77;;
50219;SDS011;36110;51.536;7.562;2024-03-08T07:53:02;40.33;;;28.23;;
50219;SDS011;36110;51.536;7.562;2024-03-08T07:55:29;46.88;;;31.90;;
50219;SDS011;36110;51.536;7.562;2024-03-08T07:57:56;40.80;;;27.67;;
50219;SDS011;36110;51.536;7.562;2024-03-08T08:00:22;48.78;;;31.95;;
50219;SDS011;36110;51.536;7.562;2024-03-08T08:02:49;44.88;;;29.85;;
50219;SDS011;36110;51.536;7.562;2024-03-08T08:05:14;44.00;;;30.42;;
50219;SDS011;36110;51.536;7.562;2024-03-08T08:07:43;48.03;;;30.80;;
50219;SDS011;36110;51.536;7.562;2024-03-08T08:10:09;51.72;;;32.00;;
50219;SDS011;36110;51.536;7.562;2024-03-08T08:12:41;48.35;;;32.03;;
50219;SDS011;36110;51.536;7.562;2024-03-08T08:15:07;45.47;;;29.98;;
50219;SDS011;36110;51.536;7.562;2024-03-08T08:17:32;46.03;;;29.17;;
50219;SDS011;36110;51.536;7.562;2024-03-08T08:19:59;49.60;;;30.42;;
50219;SDS011;36110;51.536;7.562;2024-03-08T08:22:25;41.92;;;28.50;;
50219;SDS011;36110;51.536;7.562;2024-03-08T08:24:50;36.30;;;25.35;;
50219;SDS011;36110;51.536;7.562;2024-03-08T08:27:17;39.70;;;26.75;;
50219;SDS011;36110;51.536;7.562;2024-03-08T08:29:42;40.20;;;27.40;;
50219;SDS011;36110;51.536;7.562;2024-03-08T08:32:08;43.80;;;29.20;;
50219;SDS011;36110;51.536;7.562;2024-03-08T08:34:34;44.35;;;28.05;;
50219;SDS011;36110;51.536;7.562;2024-03-08T08:36:59;40.20;;;28.27;;
50219;SDS011;36110;51.536;7.562;2024-03-08T08:39:25;40.80;;;27.13;;
50219;SDS011;36110;51.536;7.562;2024-03-08T08:41:51;40.28;;;27.83;;
50219;SDS011;36110;51.536;7.562;2024-03-08T08:44:16;41.65;;;27.83;;
50219;SDS011;36110;51.536;7.562;2024-03-08T08:46:42;43.45;;;28.75;;
50219;SDS011;36110;51.536;7.562;2024-03-08T08:49:07;43.80;;;28.73;;
50219;SDS011;36110;51.536;7.562;2024-03-08T08:51:35;36.83;;;25.83;;
50219;SDS011;36110;51.536;7.562;2024-03-08T08:54:01;40.45;;;27.10;;
50219;SDS011;36110;51.536;7.562;2024-03-08T08:56:27;35.03;;;24.70;;
50219;SDS011;36110;51.536;7.562;2024-03-08T08:58:53;39.88;;;26.70;;
50219;SDS011;36110;51.536;7.562;2024-03-08T09:01:19;36.25;;;25.60;;
50219;SDS011;36110;51.536;7.562;2024-03-08T09:03:45;42.28;;;28.77;;
50219;SDS011;36110;51.536;7.562;2024-03-08T09:06:11;41.38;;;28.10;;
50219;SDS011;36110;51.536;7.562;2024-03-08T09:08:38;45.08;;;28.65;;
50219;SDS011;36110;51.536;7.562;2024-03-08T09:11:03;46.00;;;28.45;;
50219;SDS011;36110;51.536;7.562;2024-03-08T09:13:30;44.47;;;29.13;;
50219;SDS011;36110;51.536;7.562;2024-03-08T09:15:56;42.35;;;26.70;;
50219;SDS011;36110;51.536;7.562;2024-03-08T09:18:21;37.33;;;25.52;;
50219;SDS011;36110;51.536;7.562;2024-03-08T09:20:46;39.45;;;26.88;;
50219;SDS011;36110;51.536;7.562;2024-03-08T09:23:12;39.53;;;27.95;;
50219;SDS011;36110;51.536;7.562;2024-03-08T09:25:37;39.33;;;24.60;;
50219;SDS011;36110;51.536;7.562;2024-03-08T09:28:03;33.20;;;22.95;;
50219;SDS011;36110;51.536;7.562;2024-03-08T09:30:30;34.67;;;22.50;;
50219;SDS011;36110;51.536;7.562;2024-03-08T09:32:56;32.53;;;23.85;;
50219;SDS011;36110;51.536;7.562;2024-03-08T09:35:21;30.48;;;22.08;;
50219;SDS011;36110;51.536;7.562;2024-03-08T09:37:47;44.75;;;27.50;;
50219;SDS011;36110;51.536;7.562;2024-03-08T09:40:15;36.25;;;25.73;;
50219;SDS011;36110;51.536;7.562;2024-03-08T09:42:44;38.65;;;25.80;;
50219;SDS011;36110;51.536;7.562;2024-03-08T09:45:11;39.50;;;26.98;;
50219;SDS011;36110;51.536;7.562;2024-03-08T09:47:44;41.15;;;28.05;;
50219;SDS011;36110;51.536;7.562;2024-03-08T09:50:10;35.03;;;25.75;;
50219;SDS011;36110;51.536;7.562;2024-03-08T09:52:46;39.63;;;26.17;;
50219;SDS011;36110;51.536;7.562;2024-03-08T09:55:12;39.85;;;27.60;;
50219;SDS011;36110;51.536;7.562;2024-03-08T09:57:37;38.17;;;26.85;;
50219;SDS011;36110;51.536;7.562;2024-03-08T10:00:06;46.45;;;28.35;;
50219;SDS011;36110;51.536;7.562;2024-03-08T10:02:46;40.28;;;28.02;;
50219;SDS011;36110;51.536;7.562;2024-03-08T10:05:12;40.60;;;27.83;;
50219;SDS011;36110;51.536;7.562;2024-03-08T10:07:39;31.02;;;22.40;;
50219;SDS011;36110;51.536;7.562;2024-03-08T10:10:04;35.92;;;25.45;;
50219;SDS011;36110;51.536;7.562;2024-03-08T10:12:30;32.05;;;22.80;;
50219;SDS011;36110;51.536;7.562;2024-03-08T10:14:58;39.92;;;25.67;;
50219;SDS011;36110;51.536;7.562;2024-03-08T10:17:23;38.85;;;26.67;;
50219;SDS011;36110;51.536;7.562;2024-03-08T10:19:49;38.20;;;26.75;;
50219;SDS011;36110;51.536;7.562;2024-03-08T10:22:16;37.10;;;26.27;;
50219;SDS011;36110;51.536;7.562;2024-03-08T10:24:42;31.58;;;21.50;;
50219;SDS011;36110;51.536;7.562;2024-03-08T10:27:13;34.97;;;24.88;;
50219;SDS011;36110;51.536;7.562;2024-03-08T10:29:41;25.95;;;19.83;;
50219;SDS011;36110;51.536;7.562;2024-03-08T10:32:09;43.05;;;26.38;;
50219;SDS011;36110;51.536;7.562;2024-03-08T10:34:35;30.98;;;21.88;;
50219;SDS011;36110;51.536;7.562;2024-03-08T10:37:04;37.47;;;25.63;;
50219;SDS011;36110;51.536;7.562;2024-03-08T10:39:36;30.55;;;21.67;;
50219;SDS011;36110;51.536;7.562;2024-03-08T10:42:02;40.35;;;25.75;;
50219;SDS011;36110;51.536;7.562;2024-03-08T10:44:37;39.90;;;25.50;;
50219;SDS011;36110;51.536;7.562;2024-03-08T10:47:26;36.70;;;26.60;;
50219;SDS011;36110;51.536;7.562;2024-03-08T10:49:57;34.90;;;25.60;;
50219;SDS011;36110;51.536;7.562;2024-03-08T10:52:30;34.65;;;24.30;;
50219;SDS011;36110;51.536;7.562;2024-03-08T10:54:56;35.10;;;23.55;;
50219;SDS011;36110;51.536;7.562;2024-03-08T10:57:22;35.78;;;23.60;;
50219;SDS011;36110;51.536;7.562;2024-03-08T10:59:49;25.80;;;18.98;;
50219;SDS011;36110;51.536;7.562;2024-03-08T11:02:15;35.20;;;23.95;;
50219;SDS011;36110;51.536;7.562;2024-03-08T11:04:45;39.67;;;25.33;;
50219;SDS011;36110;51.536;7.562;2024-03-08T11:07:14;27.95;;;21.15;;
50219;SDS011;36110;51.536;7.562;2024-03-08T11:09:45;31.95;;;22.77;;
50219;SDS011;36110;51.536;7.562;2024-03-08T11:12:23;34.15;;;23.00;;
50219;SDS011;36110;51.536;7.562;2024-03-08T11:15:02;35.08;;;24.15;;
50219;SDS011;36110;51.536;7.562;2024-03-08T11:17:44;31.88;;;23.63;;
50219;SDS011;36110;51.536;7.562;2024-03-08T11:20:14;31.20;;;22.85;;
50219;SDS011;36110;51.536;7.562;2024-03-08T11:22:48;29.70;;;20.95;;
50219;SDS011;36110;51.536;7.562;2024-03-08T11:25:31;33.00;;;22.45;;
50219;SDS011;36110;51.536;7.562;2024-03-08T11:33:27;26.67;;;19.10;;
50219;SDS011;36110;51.536;7.562;2024-03-08T11:36:13;26.00;;;19.23;;
50219;SDS011;36110;51.536;7.562;2024-03-08T11:38:47;27.48;;;18.55;;
50219;SDS011;36110;51.536;7.562;2024-03-08T11:41:21;27.38;;;18.92;;
50219;SDS011;36110;51.536;7.562;2024-03-08T11:43:48;26.77;;;16.45;;
50219;SDS011;36110;51.536;7.562;2024-03-08T11:46:15;17.55;;;13.07;;
50219;SDS011;36110;51.536;7.562;2024-03-08T11:48:41;20.50;;;13.23;;
50219;SDS011;36110;51.536;7.562;2024-03-08T11:51:14;18.17;;;12.63;;
50219;SDS011;36110;51.536;7.562;2024-03-08T11:53:40;17.33;;;12.48;;
50219;SDS011;36110;51.536;7.562;2024-03-08T11:56:09;17.08;;;12.95;;
50219;SDS011;36110;51.536;7.562;2024-03-08T11:58:36;18.05;;;11.98;;
50219;SDS011;36110;51.536;7.562;2024-03-08T12:01:02;17.17;;;12.18;;
50219;SDS011;36110;51.536;7.562;2024-03-08T12:03:32;18.02;;;11.95;;
50219;SDS011;36110;51.536;7.562;2024-03-08T12:06:00;22.08;;;15.25;;
50219;SDS011;36110;51.536;7.562;2024-03-08T12:08:27;17.10;;;12.00;;
50219;SDS011;36110;51.536;7.562;2024-03-08T12:10:53;19.02;;;13.10;;
50219;SDS011;36110;51.536;7.562;2024-03-08T12:13:25;18.27;;;12.77;;
50219;SDS011;36110;51.536;7.562;2024-03-08T12:15:55;15.02;;;11.68;;
50219;SDS011;36110;51.536;7.562;2024-03-08T12:18:24;19.08;;;11.02;;
50219;SDS011;36110;51.536;7.562;2024-03-08T12:21:14;16.95;;;11.60;;
50219;SDS011;36110;51.536;7.562;2024-03-08T12:23:45;16.30;;;10.93;;
50219;SDS011;36110;51.536;7.562;2024-03-08T12:26:12;17.50;;;10.48;;
50219;SDS011;36110;51.536;7.562;2024-03-08T12:28:39;12.30;;;10.18;;
50219;SDS011;36110;51.536;7.562;2024-03-08T12:31:06;12.90;;;10.38;;
50219;SDS011;36110;51.536;7.562;2024-03-08T12:33:36;13.80;;;10.85;;
50219;SDS011;36110;51.536;7.562;2024-03-08T12:36:14;13.23;;;9.93;;
50219;SDS011;36110;51.536;7.562;2024-03-08T12:38:43;13.63;;;10.07;;
50219;SDS011;36110;51.536;7.562;2024-03-08T12:41:09;14.85;;;11.07;;
50219;SDS011;36110;51.536;7.562;2024-03-08T12:43:34;18.05;;;13.43;;
50219;SDS011;36110;51.536;7.562;2024-03-08T12:46:00;17.30;;;13.35;;
50219;SDS011;36110;51.536;7.562;2024-03-08T12:48:25;17.38;;;13.60;;
50219;SDS011;36110;51.536;7.562;2024-03-08T12:50:50;18.52;;;14.57;;
50219;SDS011;36110;51.536;7.562;2024-03-08T12:53:17;19.75;;;13.63;;
50219;SDS011;36110;51.536;7.562;2024-03-08T12:55:42;17.02;;;13.55;;
50219;SDS011;36110;51.536;7.562;2024-03-08T12:58:08;18.10;;;13.23;;
50219;SDS011;36110;51.536;7.562;2024-03-08T13:00:35;17.27;;;13.55;;
50219;SDS011;36110;51.536;7.562;2024-03-08T13:03:08;18.77;;;13.73;;
50219;SDS011;36110;51.536;7.562;2024-03-08T13:05:36;20.13;;;14.85;;
50219;SDS011;36110;51.536;7.562;2024-03-08T13:08:05;19.25;;;14.73;;
50219;SDS011;36110;51.536;7.562;2024-03-08T13:10:31;19.58;;;14.52;;
50219;SDS011;36110;51.536;7.562;2024-03-08T13:12:56;20.02;;;14.05;;
50219;SDS011;36110;51.536;7.562;2024-03-08T13:15:21;20.23;;;14.50;;
50219;SDS011;36110;51.536;7.562;2024-03-08T13:17:47;19.52;;;14.98;;
50219;SDS011;36110;51.536;7.562;2024-03-08T13:20:13;20.02;;;14.50;;
50219;SDS011;36110;51.536;7.562;2024-03-08T13:22:43;23.65;;;15.65;;
50219;SDS011;36110;51.536;7.562;2024-03-08T13:25:08;21.10;;;14.25;;
50219;SDS011;36110;51.536;7.562;2024-03-08T13:27:39;18.17;;;13.90;;
50219;SDS011;36110;51.536;7.562;2024-03-08T13:30:06;19.48;;;14.75;;
50219;SDS011;36110;51.536;7.562;2024-03-08T13:32:32;20.05;;;15.98;;
50219;SDS011;36110;51.536;7.562;2024-03-08T13:34:57;23.23;;;17.02;;
50219;SDS011;36110;51.536;7.562;2024-03-08T13:37:23;23.75;;;16.67;;
50219;SDS011;36110;51.536;7.562;2024-03-08T13:39:48;19.25;;;14.07;;
50219;SDS011;36110;51.536;7.562;2024-03-08T13:42:13;21.50;;;15.52;;
50219;SDS011;36110;51.536;7.562;2024-03-08T13:44:47;20.75;;;15.98;;
50219;SDS011;36110;51.536;7.562;2024-03-08T13:47:14;21.65;;;14.90;;
50219;SDS011;36110;51.536;7.562;2024-03-08T13:49:41;19.98;;;15.00;;
50219;SDS011;36110;51.536;7.562;2024-03-08T13:52:06;22.08;;;16.33;;
50219;SDS011;36110;51.536;7.562;2024-03-08T13:54:33;20.55;;;16.63;;
50219;SDS011;36110;51.536;7.562;2024-03-08T13:57:00;20.85;;;13.55;;
50219;SDS011;36110;51.536;7.562;2024-03-08T13:59:25;23.48;;;15.40;;
50219;SDS011;36110;51.536;7.562;2024-03-08T14:01:54;21.10;;;16.00;;
50219;SDS011;36110;51.536;7.562;2024-03-08T14:04:20;21.63;;;16.63;;
50219;SDS011;36110;51.536;7.562;2024-03-08T14:06:45;21.50;;;16.15;;
50219;SDS011;36110;51.536;7.562;2024-03-08T14:09:11;22.13;;;16.52;;
50219;SDS011;36110;51.536;7.562;2024-03-08T14:11:45;23.23;;;16.80;;
50219;SDS011;36110;51.536;7.562;2024-03-08T14:14:11;22.55;;;15.43;;
50219;SDS011;36110;51.536;7.562;2024-03-08T14:16:39;21.15;;;14.07;;
50219;SDS011;36110;51.536;7.562;2024-03-08T14:19:04;18.42;;;14.98;;
50219;SDS011;36110;51.536;7.562;2024-03-08T14:21:31;19.88;;;15.43;;
50219;SDS011;36110;51.536;7.562;2024-03-08T14:23:56;21.30;;;16.27;;
50219;SDS011;36110;51.536;7.562;2024-03-08T14:26:22;20.98;;;15.52;;